Relevés horaires Koksijde (Belgique)


Relevés horaires à Koksijde - Mardi 25 Sept. 2018
Heure UTC1 Température [°C] Vent [km/h] Hum. [%] Pres.4 [hPa] Visi. [Km] Nébu. [octa] Préc.5 [mm] Cond.
2m. Res. Ros. Dir.2 Vit. Moy. Raf.3
20:00 9.5 9.5 6.8 NNO 1.9 -- 1.9 83 1037(0.3/3h) 15 2/8 -- --
19:00 9.9 9.9 6.6 NNO 1.9 -- 3.7 80 1037(0.1/3h) 20 2/8 -- --
18:00 11.2 11.2 7.3 NE 3.7 -- 5.6 77 1037.4(-0.1/3h) 20 2/8 -- --
17:00 13.3 13.3 7.4 NE 3.7 -- 5.6 67 1036.7(-1.5/3h) 20 2/8 -- --
16:00 14.5 14.5 5.6 NNO 1.9 -- 5.6 55 1037(-1.7/3h) 20 3/8 -- --
15:00 14.5 14.5 7.1 NNO 1.9 -- 5.6 61 1037.5(-1.9/3h) 20 3/8 -- --
14:00 15.5 15.5 5.2 NNO 1.9 -- 5.6 50 1038.2(-1.5/3h) 20 3/8 -- --
13:00 14.5 14.5 6.0 NNO 1.9 -- 5.6 57 1038.7(-1.2/3h) 20 4/8 -- --
12:00 14.5 14.5 5.3 NNO 1.9 -- 7.4 54 1039.5(-0.5/3h) 20 4/8 -- --
11:00 15.3 15.3 6.3 NNO 3.7 -- 7.4 55 1039.7(0.3/3h) 20 4/8 -- --
10:00 14.1 14.1 6.1 SSO 3.7 -- 5.6 59 1040(1.0/3h) 20 4/8 -- --
09:00 11.8 11.8 6.9 NNO 1.9 -- 3.7 72 1040(1.3/3h) 20 4/8 -- --
08:00 9.6 9.6 6.8 NNO 1.9 -- 3.7 83 1039.4(0.9/3h) 20 4/8 -- --
07:00 6.0 6.0 5.0 NNO 1.9 -- 3.7 93 1039(0.3/3h) 15 4/8 -- --
06:00 4.7 4.7 3.6 NNO 1.9 -- 3.7 93 1038.7(0.1/3h) 15 3/8 -- --
05:00 4.8 4.8 3.6 NNO 1.9 -- 3.7 92 1038.5(-0.1/3h) 11 2/8 -- --
04:00 5.5 5.5 4.4 NNO 1.9 -- 3.7 93 1038.5(-0.1/3h) 11 2/8 -- --
03:00 5.4 5.4 4.2 NNO 1.9 -- 3.7 92 1038.5(-0.3/3h) 11 -- -- --
02:00 5.8 5.8 4.3 NNO 1.9 -- 1.9 90 1038.7(-0.2/3h) 17 -- -- --
01:00 6.0 6.0 4.2 NNO 1.9 -- 1.9 88 1038.7(-0.2/3h) 12 -- -- --
00:00 7.1 7.1 5.0 NNO 1.9 -- 7.4 86 1038.9(0.0/3h) 14 -- -- --

1 Coordinated Universal Time. Actuellement il est 22:00 locale et 20:00 UTC.

2 Le vent souffle depuis la direction indiquée vers la direction oposée.

3 Les rafales max. sont disponible 40 min après l'heure du relevé.

4 Pour les stations d'altitude (plus de 600m) le géopotentiel du niveau le plus proche de la pression obligatoire est indiqué.

5 Les stations disposant d'un diffuseur peuvent indiquer "trace". Cela signifie que des précipitations ont touchés le sol mais que la quantité est inférieure à 0.1 mm.

Récapitulatif de la journée
Température [°C] Vent [km/h] Ensoleillement4 [h] Precipitations totale5 [mm] Pression [Hpa]
Min1 Max.2 Moy.3 Max. Min Max.
4.3 16.3 0 7.4 0 h 0 min 0 1036.7 1040.0

1 Température minimale relevée entre 18:00 UTC la veille et 18:00 UTC le jour donné.

2 Température maximale relevée entre 06:00 UTC le jour donné et 06:00 UTC le lendemain.

3 Vent moyen de la journée basé sur les relevés horaires.

4 Ensoleillement en heures relevé entre 06:00 UTC la veille et 06:00 UTC le jour donné.

5 Précipitations totales tombées entre 06:00 UTC la jour donné et 06:00 UTC le lendemain.

Graphiques horaires